This is the latest recevied weather packets stored in our database for station/object KC8JWT. If no packets are shown the sender has not sent any weather packets the latest 10 day(s).
| Time | Temp. | Humidity | Pressure | Rain* | Wind** | Luminosity | Snow |
|---|---|---|---|---|---|---|---|
| 1778089051 | 15.56° C | 84% | 1011.6 hPa | 0 mm | - | 328 W/m² | - |
| 1778088747 | 15.56° C | 85% | 1011.5 hPa | 0 mm | - | 373 W/m² | - |
| 1778088444 | 16.11° C | 84% | 1011.4 hPa | 0 mm | - | 478 W/m² | - |
| 1778088141 | 15.56° C | 87% | 1011.5 hPa | 0 mm | - | 548 W/m² | - |
| 1778087839 | 15° C | 89% | 1011.2 hPa | 0 mm | - | 577 W/m² | - |
| 1778087536 | 14.44° C | 91% | 1011.3 hPa | 0 mm | - | 471 W/m² | - |
| 1778087233 | 14.44° C | 92% | 1011.3 hPa | 0 mm | - | 465 W/m² | - |
| 1778086930 | 13.33° C | 96% | 1011.7 hPa | 0 mm | - | 664 W/m² | - |
| 1778086628 | 12.22° C | 98% | 1011.5 hPa | 0 mm | - | 299 W/m² | - |
| 1778086325 | 12.78° C | 99% | 1011.6 hPa | 0 mm | - | 423 W/m² | - |
| 1778086022 | 12.22° C | 99% | 1011.7 hPa | 0 mm | - | 235 W/m² | - |
| 1778085719 | 12.78° C | 99% | 1011.4 hPa | 0 mm | - | 328 W/m² | - |
| 1778085415 | 12.22° C | 99% | 1011.8 hPa | 0 mm | - | 374 W/m² | - |
| 1778085111 | 12.22° C | 99% | 1011.8 hPa | 0 mm | - | 292 W/m² | - |
| 1778084807 | 11.67° C | 99% | 1011.8 hPa | 0 mm | - | 266 W/m² | - |
| 1778084505 | 11.67° C | 99% | 1011.6 hPa | 0 mm | - | 282 W/m² | - |
| 1778084202 | 11.11° C | 99% | 1011.5 hPa | 0 mm | - | 362 W/m² | - |
| 1778083898 | 11.11° C | 99% | 1011.8 hPa | 0 mm | - | 162 W/m² | - |
| 1778083596 | 11.11° C | 99% | 1011.9 hPa | 0 mm | - | 124 W/m² | - |
| 1778083292 | 11.11° C | 99% | 1011.5 hPa | 0 mm | - | 181 W/m² | - |
| 1778082992 | 11.11° C | 99% | 1011.5 hPa | 0 mm | - | 124 W/m² | - |
| 1778082689 | 10.56° C | 99% | 1011 hPa | 0 mm | - | 283 W/m² | - |
| 1778081550 | 10.56° C | 99% | 1011.1 hPa | 0 mm | - | 166 W/m² | - |
| 1778081247 | 10.56° C | 99% | 1010.7 hPa | 0 mm | - | 136 W/m² | - |
| 1778080944 | 10.56° C | 99% | 1010.9 hPa | 0 mm | - | 155 W/m² | - |
* Rain latest hour (hover to see other rain measurements)
** Current wind speed in m/s (hover to see current wind gust speed)